Time;durP1;ratioP1;P1;durP2;ratioP2;P2;SDS_P1;SDS_P2;PMS_P1;PMS_P2;Temp;Humidity;BMP_temperature;BMP_pressure;BME280_temperature;BME280_humidity;BME280_pressure;Samples;Min_cycle;Max_cycle;Signal;HPM_P1;HPM_P2
2023/12/20 00:01:24;;;;;;;5.28;1.20;;;;;;;;;;5038044;28;20041;-59
2023/12/20 00:03:50;;;;;;;4.97;1.77;;;;;;;;;;5040842;28;20076;-59
2023/12/20 00:06:16;;;;;;;4.18;1.17;;;;;;;;;;5036842;28;20091;-59
2023/12/20 00:08:42;;;;;;;5.60;1.92;;;;;;;;;;5036626;28;20564;-59
2023/12/20 00:11:08;;;;;;;4.47;0.82;;;;;;;;;;5033017;28;20041;-59
2023/12/20 00:13:34;;;;;;;4.10;1.25;;;;;;;;;;5034249;28;20424;-59
2023/12/20 00:16:00;;;;;;;3.58;1.50;;;;;;;;;;5034416;28;20040;-59
2023/12/20 00:18:26;;;;;;;8.13;1.73;;;;;;;;;;5037606;28;20069;-59
2023/12/20 00:20:52;;;;;;;8.25;1.45;;;;;;;;;;5033736;28;20041;-59
2023/12/20 00:23:17;;;;;;;5.70;2.13;;;;;;;;;;5042006;28;20045;-58
2023/12/20 00:25:43;;;;;;;6.25;1.70;;;;;;;;;;5044222;28;20063;-59
2023/12/20 00:28:09;;;;;;;7.63;1.00;;;;;;;;;;5040635;28;20124;-59
2023/12/20 00:30:36;;;;;;;6.38;1.70;;;;;;;;;;5038890;28;20086;-59
2023/12/20 00:33:02;;;;;;;2.65;1.27;;;;;;;;;;5044321;28;20191;-59
2023/12/20 00:35:28;;;;;;;8.90;1.75;;;;;;;;;;5040814;28;20040;-59
2023/12/20 00:37:54;;;;;;;7.70;1.52;;;;;;;;;;5045385;28;20041;-59
2023/12/20 00:40:20;;;;;;;4.53;1.27;;;;;;;;;;5043768;28;20060;-59
2023/12/20 00:42:46;;;;;;;8.27;1.90;;;;;;;;;;5042255;28;20052;-59
2023/12/20 00:45:14;;;;;;;6.00;1.23;;;;;;;;;;5041024;28;20575;-59
2023/12/20 00:47:40;;;;;;;6.50;1.00;;;;;;;;;;5038307;28;20072;-59
2023/12/20 00:50:06;;;;;;;5.25;1.40;;;;;;;;;;5039249;28;20072;-59
2023/12/20 00:52:32;;;;;;;8.57;1.80;;;;;;;;;;5038199;28;20049;-59
2023/12/20 00:54:58;;;;;;;7.22;1.77;;;;;;;;;;5038545;28;20037;-59
2023/12/20 00:57:25;;;;;;;8.18;1.58;;;;;;;;;;5042468;28;20734;-59
2023/12/20 00:59:51;;;;;;;5.35;1.33;;;;;;;;;;5039139;28;20044;-59
2023/12/20 01:02:17;;;;;;;4.60;1.05;;;;;;;;;;5038809;28;20033;-59
2023/12/20 01:04:43;;;;;;;4.05;1.40;;;;;;;;;;5034590;28;20037;-59
2023/12/20 01:07:09;;;;;;;11.45;1.88;;;;;;;;;;5038758;28;20110;-59
2023/12/20 01:09:35;;;;;;;6.10;1.50;;;;;;;;;;5036405;28;20436;-59
2023/12/20 01:12:01;;;;;;;8.85;1.30;;;;;;;;;;5038823;28;20732;-59
2023/12/20 01:14:27;;;;;;;6.93;1.35;;;;;;;;;;5034960;28;20128;-58
2023/12/20 01:16:53;;;;;;;7.32;1.70;;;;;;;;;;5036788;28;20037;-59
2023/12/20 01:19:19;;;;;;;5.15;1.15;;;;;;;;;;5038313;28;20810;-59
2023/12/20 01:21:45;;;;;;;4.15;1.20;;;;;;;;;;5038855;28;20029;-59
2023/12/20 01:24:11;;;;;;;8.00;1.70;;;;;;;;;;5044640;28;20041;-59
2023/12/20 01:26:37;;;;;;;8.65;1.60;;;;;;;;;;5039563;28;20037;-58
2023/12/20 01:29:03;;;;;;;8.63;2.33;;;;;;;;;;5039544;28;20045;-59
2023/12/20 01:31:29;;;;;;;6.93;2.22;;;;;;;;;;5035581;28;20048;-58
2023/12/20 01:33:55;;;;;;;9.40;2.15;;;;;;;;;;5037185;28;20045;-59
2023/12/20 01:36:21;;;;;;;5.13;1.40;;;;;;;;;;5040821;28;20037;-59
2023/12/20 01:38:47;;;;;;;9.70;2.67;;;;;;;;;;5044615;28;20959;-59
2023/12/20 01:41:13;;;;;;;8.02;1.52;;;;;;;;;;5038357;28;20124;-59
2023/12/20 01:43:39;;;;;;;8.35;2.38;;;;;;;;;;5043669;28;20078;-58
2023/12/20 01:46:05;;;;;;;6.45;1.80;;;;;;;;;;5039086;28;20045;-59
2023/12/20 01:48:32;;;;;;;9.55;2.00;;;;;;;;;;5038697;28;20147;-59
2023/12/20 01:50:58;;;;;;;6.55;1.48;;;;;;;;;;5043989;28;20667;-59
2023/12/20 01:53:25;;;;;;;9.82;2.05;;;;;;;;;;5038225;28;20041;-59
2023/12/20 01:55:53;;;;;;;9.38;1.98;;;;;;;;;;5036538;28;20041;-59
2023/12/20 01:58:19;;;;;;;12.75;1.95;;;;;;;;;;5040191;28;20449;-58
2023/12/20 02:00:45;;;;;;;4.03;1.05;;;;;;;;;;5042217;28;20443;-58
2023/12/20 02:03:12;;;;;;;4.43;1.45;;;;;;;;;;5039728;28;20822;-59
2023/12/20 02:05:38;;;;;;;4.60;1.33;;;;;;;;;;5038881;28;20033;-59
2023/12/20 02:08:05;;;;;;;7.07;1.25;;;;;;;;;;5037313;28;20119;-58
2023/12/20 02:10:31;;;;;;;5.22;1.38;;;;;;;;;;5034186;28;20052;-58
2023/12/20 02:12:58;;;;;;;4.15;1.45;;;;;;;;;;5041209;28;20064;-58
2023/12/20 02:15:24;;;;;;;3.95;1.20;;;;;;;;;;5038524;28;20087;-58
2023/12/20 02:17:50;;;;;;;8.63;1.80;;;;;;;;;;5039465;28;20045;-58
2023/12/20 02:20:16;;;;;;;9.35;2.20;;;;;;;;;;5037378;28;20068;-58
2023/12/20 02:22:42;;;;;;;6.63;2.28;;;;;;;;;;5037768;28;20042;-58
2023/12/20 02:25:09;;;;;;;6.10;1.52;;;;;;;;;;5038055;28;20500;-59
2023/12/20 02:27:35;;;;;;;4.22;1.98;;;;;;;;;;5035555;28;20063;-59
2023/12/20 02:30:01;;;;;;;4.75;1.55;;;;;;;;;;5042258;28;20086;-59
2023/12/20 02:32:28;;;;;;;9.73;2.08;;;;;;;;;;5044343;28;20064;-58
2023/12/20 02:34:55;;;;;;;12.85;2.63;;;;;;;;;;5039369;28;20514;-59
2023/12/20 02:37:21;;;;;;;10.32;2.47;;;;;;;;;;5037817;28;20088;-59
2023/12/20 02:39:47;;;;;;;6.90;1.95;;;;;;;;;;5039784;28;20033;-59
2023/12/20 02:42:13;;;;;;;3.90;1.38;;;;;;;;;;5036314;28;20394;-59
2023/12/20 02:44:39;;;;;;;6.07;1.63;;;;;;;;;;5038218;28;20060;-60
2023/12/20 02:47:05;;;;;;;12.50;2.20;;;;;;;;;;5034215;28;20033;-59
2023/12/20 02:49:31;;;;;;;10.52;2.42;;;;;;;;;;5040057;28;20101;-59
2023/12/20 02:51:57;;;;;;;10.30;2.20;;;;;;;;;;5043597;28;20044;-59
2023/12/20 02:54:23;;;;;;;5.97;1.85;;;;;;;;;;5035043;28;20061;-59
2023/12/20 02:56:49;;;;;;;6.75;1.88;;;;;;;;;;5039717;28;20116;-58
2023/12/20 02:59:15;;;;;;;8.73;2.13;;;;;;;;;;5041725;28;20041;-59
2023/12/20 03:01:45;;;;;;;6.47;1.98;;;;;;;;;;5040520;28;20128;-59
2023/12/20 03:04:11;;;;;;;8.90;2.10;;;;;;;;;;5042166;28;20045;-59
2023/12/20 03:06:37;;;;;;;6.88;2.05;;;;;;;;;;5041149;28;20055;-60
2023/12/20 03:09:03;;;;;;;9.45;3.22;;;;;;;;;;5042119;28;20601;-59
2023/12/20 03:11:30;;;;;;;7.22;1.58;;;;;;;;;;5040820;28;20045;-59
2023/12/20 03:13:56;;;;;;;14.95;3.00;;;;;;;;;;5039978;28;20126;-59
2023/12/20 03:16:22;;;;;;;9.63;2.95;;;;;;;;;;5041105;28;20078;-59
2023/12/20 03:18:48;;;;;;;9.93;2.35;;;;;;;;;;5037546;28;20490;-59
2023/12/20 03:21:14;;;;;;;11.70;3.45;;;;;;;;;;5032454;28;20063;-59
2023/12/20 03:23:40;;;;;;;10.27;2.75;;;;;;;;;;5032348;28;20041;-59
2023/12/20 03:26:09;;;;;;;7.00;1.73;;;;;;;;;;5031644;28;20493;-59
2023/12/20 03:28:36;;;;;;;14.18;2.72;;;;;;;;;;5034631;28;20065;-59
2023/12/20 03:31:02;;;;;;;10.40;2.20;;;;;;;;;;5035916;28;20037;-59
2023/12/20 03:33:28;;;;;;;4.97;1.92;;;;;;;;;;5035406;28;20069;-59
2023/12/20 03:35:54;;;;;;;6.40;1.65;;;;;;;;;;5036375;28;20037;-59
2023/12/20 03:38:21;;;;;;;10.15;2.17;;;;;;;;;;5035837;28;20028;-59
2023/12/20 03:40:47;;;;;;;5.15;1.83;;;;;;;;;;5040363;28;20071;-59
2023/12/20 03:43:13;;;;;;;5.80;2.20;;;;;;;;;;5034101;28;20094;-59
2023/12/20 03:45:39;;;;;;;13.57;3.03;;;;;;;;;;5038102;28;20044;-59
2023/12/20 03:48:05;;;;;;;12.98;2.63;;;;;;;;;;5041209;28;20060;-59
2023/12/20 03:50:31;;;;;;;9.15;3.15;;;;;;;;;;5034909;28;20074;-59
2023/12/20 03:52:57;;;;;;;12.85;2.92;;;;;;;;;;5039618;28;20041;-59
2023/12/20 03:55:23;;;;;;;13.65;2.92;;;;;;;;;;5034766;28;20043;-59
2023/12/20 03:57:49;;;;;;;8.32;2.70;;;;;;;;;;5033088;28;20084;-59
2023/12/20 04:00:15;;;;;;;9.55;3.00;;;;;;;;;;5036302;28;20072;-59
2023/12/20 04:02:42;;;;;;;9.15;2.40;;;;;;;;;;5040301;28;20047;-59
2023/12/20 04:05:08;;;;;;;19.00;4.03;;;;;;;;;;5039433;28;20194;-59
2023/12/20 04:07:34;;;;;;;11.07;3.20;;;;;;;;;;5038112;28;20390;-59
2023/12/20 04:10:00;;;;;;;12.68;3.40;;;;;;;;;;5030233;28;20037;-59
2023/12/20 04:12:27;;;;;;;9.18;2.58;;;;;;;;;;5035549;28;20036;-59
2023/12/20 04:14:53;;;;;;;11.63;2.67;;;;;;;;;;5039101;28;20049;-59
2023/12/20 04:17:19;;;;;;;13.63;2.97;;;;;;;;;;5040183;28;20047;-59
2023/12/20 04:19:45;;;;;;;18.15;4.03;;;;;;;;;;5039919;28;20042;-59
2023/12/20 04:22:11;;;;;;;7.35;2.40;;;;;;;;;;5032169;28;20049;-59
2023/12/20 04:24:37;;;;;;;17.08;3.97;;;;;;;;;;5039372;28;20044;-59
2023/12/20 04:27:03;;;;;;;16.50;3.85;;;;;;;;;;5033605;28;20535;-59
2023/12/20 04:29:29;;;;;;;9.68;2.92;;;;;;;;;;5035491;28;20041;-59
2023/12/20 04:31:55;;;;;;;12.95;2.88;;;;;;;;;;5033880;28;20378;-58
2023/12/20 04:34:21;;;;;;;10.40;2.80;;;;;;;;;;5037812;28;20049;-59
2023/12/20 04:36:47;;;;;;;18.30;3.70;;;;;;;;;;5037824;28;20037;-59
2023/12/20 04:39:14;;;;;;;17.75;3.08;;;;;;;;;;5038327;28;20045;-58
2023/12/20 04:41:41;;;;;;;17.13;4.20;;;;;;;;;;5036631;28;20037;-59
2023/12/20 04:44:07;;;;;;;11.50;2.25;;;;;;;;;;5040088;28;20059;-59
2023/12/20 04:46:33;;;;;;;10.98;2.47;;;;;;;;;;5041026;28;20040;-59
2023/12/20 04:48:59;;;;;;;12.30;3.78;;;;;;;;;;5034330;28;20543;-59
2023/12/20 04:51:25;;;;;;;11.15;3.15;;;;;;;;;;5038501;28;20052;-59
2023/12/20 04:53:51;;;;;;;13.48;2.60;;;;;;;;;;5039465;28;20602;-59
2023/12/20 04:56:17;;;;;;;12.52;2.90;;;;;;;;;;5033334;28;20044;-58
2023/12/20 04:58:43;;;;;;;14.18;2.72;;;;;;;;;;5038319;28;20048;-59
2023/12/20 05:01:09;;;;;;;14.20;3.10;;;;;;;;;;5038418;28;20099;-59
2023/12/20 05:03:35;;;;;;;9.93;2.78;;;;;;;;;;5038718;28;20037;-59
2023/12/20 05:06:01;;;;;;;18.90;4.22;;;;;;;;;;5039811;28;20044;-59
2023/12/20 05:08:27;;;;;;;15.65;3.17;;;;;;;;;;5041724;28;20051;-59
2023/12/20 05:10:54;;;;;;;16.48;4.05;;;;;;;;;;5038779;28;20467;-59
2023/12/20 05:13:21;;;;;;;9.07;3.05;;;;;;;;;;5041202;28;20037;-59
2023/12/20 05:15:46;;;;;;;14.75;3.70;;;;;;;;;;5042795;28;20068;-59
2023/12/20 05:18:13;;;;;;;12.20;3.85;;;;;;;;;;5035369;28;20458;-59
2023/12/20 05:20:39;;;;;;;11.20;3.22;;;;;;;;;;5035152;28;20045;-59
2023/12/20 05:23:05;;;;;;;5.82;2.25;;;;;;;;;;5035846;28;20413;-59
2023/12/20 05:25:31;;;;;;;11.48;3.25;;;;;;;;;;5037521;28;20041;-58
2023/12/20 05:27:57;;;;;;;16.40;4.18;;;;;;;;;;5039699;28;20036;-59
2023/12/20 05:30:23;;;;;;;12.52;3.42;;;;;;;;;;5038688;28;20032;-58
2023/12/20 05:32:49;;;;;;;16.40;3.92;;;;;;;;;;5041574;28;20055;-59
2023/12/20 05:35:15;;;;;;;9.80;3.17;;;;;;;;;;5035542;28;20412;-59
2023/12/20 05:37:42;;;;;;;14.55;3.92;;;;;;;;;;5041324;28;20044;-59
2023/12/20 05:40:10;;;;;;;14.43;4.07;;;;;;;;;;5040629;28;20048;-59
2023/12/20 05:42:36;;;;;;;12.25;3.25;;;;;;;;;;5041993;28;20472;-59
2023/12/20 05:45:02;;;;;;;12.98;3.40;;;;;;;;;;5037594;28;20554;-59
2023/12/20 05:47:28;;;;;;;9.68;3.13;;;;;;;;;;5038014;28;20041;-59
2023/12/20 05:49:54;;;;;;;19.13;4.00;;;;;;;;;;5033544;28;20060;-59
2023/12/20 05:52:20;;;;;;;12.38;3.05;;;;;;;;;;5038687;28;20044;-59
2023/12/20 05:54:47;;;;;;;11.18;2.67;;;;;;;;;;5041386;28;20086;-58
2023/12/20 05:57:13;;;;;;;12.35;2.85;;;;;;;;;;5040684;28;20041;-59
2023/12/20 05:59:39;;;;;;;13.75;2.67;;;;;;;;;;5045830;28;20044;-58
2023/12/20 06:02:05;;;;;;;13.63;3.88;;;;;;;;;;5042049;28;20045;-59
2023/12/20 06:04:31;;;;;;;12.77;3.00;;;;;;;;;;5040529;28;20060;-59
2023/12/20 06:06:57;;;;;;;15.57;3.85;;;;;;;;;;5042469;28;20037;-59
2023/12/20 06:09:23;;;;;;;18.80;3.95;;;;;;;;;;5041003;28;20033;-59
2023/12/20 06:11:50;;;;;;;9.93;2.63;;;;;;;;;;5042496;28;20060;-59
2023/12/20 06:14:17;;;;;;;9.48;3.22;;;;;;;;;;5042581;28;20056;-59
2023/12/20 06:16:43;;;;;;;8.60;2.58;;;;;;;;;;5040937;28;20037;-59
2023/12/20 06:19:09;;;;;;;11.48;3.25;;;;;;;;;;5041377;28;20110;-59
2023/12/20 06:21:35;;;;;;;11.55;3.55;;;;;;;;;;5038083;28;20517;-59
2023/12/20 06:24:01;;;;;;;17.10;4.32;;;;;;;;;;5041914;28;20083;-59
2023/12/20 06:26:27;;;;;;;17.60;4.07;;;;;;;;;;5035777;28;20052;-59
2023/12/20 06:28:53;;;;;;;14.65;3.33;;;;;;;;;;5032662;28;20056;-59
2023/12/20 06:31:19;;;;;;;14.13;3.75;;;;;;;;;;5033857;28;20044;-59
2023/12/20 06:33:45;;;;;;;14.68;4.22;;;;;;;;;;5033833;28;20036;-59
2023/12/20 06:36:14;;;;;;;22.38;4.20;;;;;;;;;;5034906;28;20107;-59
2023/12/20 06:38:42;;;;;;;14.32;3.13;;;;;;;;;;5035549;28;20397;-59
2023/12/20 06:41:08;;;;;;;16.10;3.95;;;;;;;;;;5037013;28;20041;-59
2023/12/20 06:43:34;;;;;;;16.50;4.05;;;;;;;;;;5041086;28;21099;-59
2023/12/20 06:46:03;;;;;;;19.23;4.25;;;;;;;;;;5038997;28;20439;-59
2023/12/20 06:48:29;;;;;;;16.10;4.13;;;;;;;;;;5041034;28;20060;-59
2023/12/20 06:50:55;;;;;;;10.50;3.35;;;;;;;;;;5042394;28;20045;-59
2023/12/20 06:53:21;;;;;;;8.52;2.85;;;;;;;;;;5034056;28;20111;-59
2023/12/20 06:55:47;;;;;;;19.10;3.85;;;;;;;;;;5036919;28;20481;-58
2023/12/20 06:58:13;;;;;;;15.07;3.17;;;;;;;;;;5036160;28;20056;-59
2023/12/20 07:00:39;;;;;;;11.00;2.45;;;;;;;;;;5040621;28;20492;-59
2023/12/20 07:03:05;;;;;;;13.57;2.70;;;;;;;;;;5043046;28;20036;-59
2023/12/20 07:05:31;;;;;;;17.48;3.83;;;;;;;;;;5036378;28;20120;-59
2023/12/20 07:07:57;;;;;;;10.05;3.15;;;;;;;;;;5038706;28;20144;-59
2023/12/20 07:10:23;;;;;;;17.95;3.88;;;;;;;;;;5074167;28;20039;-59
2023/12/20 07:12:50;;;;;;;13.35;3.47;;;;;;;;;;5037898;28;20056;-59
2023/12/20 07:15:16;;;;;;;9.85;3.22;;;;;;;;;;5040921;28;20053;-60
2023/12/20 07:17:43;;;;;;;17.35;4.25;;;;;;;;;;5041893;28;20033;-59
2023/12/20 07:20:10;;;;;;;14.60;4.03;;;;;;;;;;5038354;28;20446;-59
2023/12/20 07:22:36;;;;;;;23.83;4.75;;;;;;;;;;5039090;28;20041;-59
2023/12/20 07:25:03;;;;;;;10.40;3.13;;;;;;;;;;5037359;28;20081;-59
2023/12/20 07:27:29;;;;;;;12.57;3.20;;;;;;;;;;5036219;28;20046;-59
2023/12/20 07:29:55;;;;;;;10.85;3.38;;;;;;;;;;5037500;28;20033;-59
2023/12/20 07:32:21;;;;;;;11.18;3.33;;;;;;;;;;5042353;28;20099;-59
2023/12/20 07:34:47;;;;;;;15.73;3.13;;;;;;;;;;5031999;28;20891;-60
2023/12/20 07:37:13;;;;;;;7.38;2.80;;;;;;;;;;5034742;28;20045;-59
2023/12/20 07:39:42;;;;;;;18.33;4.50;;;;;;;;;;5037236;28;20080;-59
2023/12/20 07:42:09;;;;;;;16.73;3.47;;;;;;;;;;5034129;28;20047;-59
2023/12/20 07:44:38;;;;;;;12.15;3.05;;;;;;;;;;5038082;28;20045;-59
2023/12/20 07:47:04;;;;;;;12.63;3.25;;;;;;;;;;5034001;28;20489;-59
2023/12/20 07:49:33;;;;;;;11.07;3.45;;;;;;;;;;5039693;28;20123;-59
2023/12/20 07:51:59;;;;;;;15.35;3.83;;;;;;;;;;5041290;28;20041;-59
2023/12/20 07:54:25;;;;;;;8.63;3.63;;;;;;;;;;5040400;28;20044;-59
2023/12/20 07:56:51;;;;;;;14.35;4.10;;;;;;;;;;5037824;28;20029;-59
2023/12/20 07:59:17;;;;;;;11.88;3.50;;;;;;;;;;5041529;28;20412;-59
2023/12/20 08:01:43;;;;;;;10.27;3.78;;;;;;;;;;5038562;28;20088;-59
2023/12/20 08:04:09;;;;;;;9.07;2.88;;;;;;;;;;5041727;28;20064;-59
2023/12/20 08:06:35;;;;;;;9.43;3.17;;;;;;;;;;5040037;28;20038;-59
2023/12/20 08:09:01;;;;;;;10.43;3.47;;;;;;;;;;5034629;28;20029;-59
2023/12/20 08:11:27;;;;;;;14.35;4.50;;;;;;;;;;5043700;28;20052;-58
2023/12/20 08:13:53;;;;;;;16.08;4.05;;;;;;;;;;5033377;28;20555;-59
2023/12/20 08:16:19;;;;;;;16.52;3.35;;;;;;;;;;5042464;28;20041;-59
2023/12/20 08:18:45;;;;;;;11.82;3.40;;;;;;;;;;5044137;28;20037;-59
2023/12/20 08:21:11;;;;;;;11.07;3.67;;;;;;;;;;5042941;28;20084;-59
2023/12/20 08:23:37;;;;;;;13.70;3.17;;;;;;;;;;5036764;28;20080;-59
2023/12/20 08:26:04;;;;;;;9.90;3.22;;;;;;;;;;5037092;28;20568;-59
2023/12/20 08:28:31;;;;;;;13.95;3.10;;;;;;;;;;5045201;28;20044;-59
2023/12/20 08:30:57;;;;;;;11.50;2.83;;;;;;;;;;5044763;28;20430;-59
2023/12/20 08:33:23;;;;;;;15.45;3.20;;;;;;;;;;5044356;28;20117;-59
2023/12/20 08:35:49;;;;;;;16.02;3.55;;;;;;;;;;5045477;28;20029;-59
2023/12/20 08:38:16;;;;;;;9.93;2.53;;;;;;;;;;5044253;28;20049;-59
2023/12/20 08:40:42;;;;;;;9.10;1.92;;;;;;;;;;5036785;28;20565;-60
2023/12/20 08:43:08;;;;;;;3.95;1.10;;;;;;;;;;5039899;28;20055;-59
2023/12/20 08:45:34;;;;;;;7.00;1.50;;;;;;;;;;5040102;28;20108;-59
2023/12/20 08:48:00;;;;;;;7.47;1.52;;;;;;;;;;5047643;28;20116;-59
2023/12/20 08:50:26;;;;;;;2.13;0.55;;;;;;;;;;5048525;28;20041;-59
2023/12/20 08:52:52;;;;;;;7.60;2.35;;;;;;;;;;5039924;28;20048;-59
2023/12/20 08:55:19;;;;;;;3.50;1.05;;;;;;;;;;5047613;28;20049;-59
2023/12/20 08:57:45;;;;;;;3.70;1.20;;;;;;;;;;5049010;28;20124;-59
2023/12/20 09:00:12;;;;;;;3.70;0.98;;;;;;;;;;5046970;28;20037;-59
2023/12/20 09:02:38;;;;;;;4.38;1.30;;;;;;;;;;5041010;28;20044;-60
2023/12/20 09:05:04;;;;;;;6.22;1.30;;;;;;;;;;5042949;28;20033;-59
2023/12/20 09:07:31;;;;;;;6.65;1.60;;;;;;;;;;5044217;28;20130;-60
2023/12/20 09:09:57;;;;;;;5.97;1.38;;;;;;;;;;5049055;28;20041;-59
2023/12/20 09:12:23;;;;;;;8.63;2.15;;;;;;;;;;5048142;28;20524;-59
2023/12/20 09:14:50;;;;;;;5.70;1.17;;;;;;;;;;5048815;28;20045;-59
2023/12/20 09:17:17;;;;;;;9.80;1.33;;;;;;;;;;5048421;28;20047;-60
2023/12/20 09:19:46;;;;;;;3.45;0.93;;;;;;;;;;5044303;28;20033;-60
2023/12/20 09:22:12;;;;;;;3.25;0.93;;;;;;;;;;5047403;28;20043;-60
2023/12/20 09:24:41;;;;;;;2.47;0.80;;;;;;;;;;5047648;28;20040;-59
2023/12/20 09:27:07;;;;;;;3.60;0.52;;;;;;;;;;5044832;28;20512;-58
2023/12/20 09:29:33;;;;;;;2.55;0.85;;;;;;;;;;5048519;28;20041;-59
2023/12/20 09:31:59;;;;;;;3.25;0.88;;;;;;;;;;5047376;28;20041;-59
2023/12/20 09:34:25;;;;;;;3.72;0.95;;;;;;;;;;5047788;28;20037;-59
2023/12/20 09:36:52;;;;;;;3.58;0.60;;;;;;;;;;5048133;28;20104;-59
2023/12/20 09:39:21;;;;;;;1.77;0.47;;;;;;;;;;5047469;28;20041;-60
2023/12/20 09:42:04;;;;;;;2.03;0.50;;;;;;;;;;5042939;28;21291;-60
2023/12/20 09:44:31;;;;;;;3.72;0.98;;;;;;;;;;5040666;28;20079;-58
2023/12/20 09:46:57;;;;;;;4.43;0.73;;;;;;;;;;5047836;28;20037;-56
2023/12/20 09:49:23;;;;;;;4.40;0.80;;;;;;;;;;5047580;28;20057;-61
2023/12/20 09:51:52;;;;;;;4.85;1.25;;;;;;;;;;5048292;28;20045;-59
2023/12/20 09:54:18;;;;;;;5.63;0.73;;;;;;;;;;5046378;28;20051;-64
2023/12/20 09:56:45;;;;;;;4.57;1.13;;;;;;;;;;5041461;28;20118;-59
2023/12/20 09:59:11;;;;;;;4.18;0.77;;;;;;;;;;5047669;28;20790;-60
2023/12/20 10:01:38;;;;;;;2.42;0.93;;;;;;;;;;5046572;28;20041;-60
2023/12/20 10:04:12;;;;;;;1.95;0.60;;;;;;;;;;5043102;28;20033;-59
2023/12/20 10:06:44;;;;;;;2.75;0.70;;;;;;;;;;5045763;28;20049;-60
2023/12/20 10:09:10;;;;;;;;;;;;;;;;;;5039204;28;20052;-60
2023/12/20 10:11:39;;;;;;;4.22;0.68;;;;;;;;;;5047080;28;19916;-60
2023/12/20 10:14:06;;;;;;;2.05;0.70;;;;;;;;;;5046875;28;20120;-59
2023/12/20 10:16:32;;;;;;;5.07;1.05;;;;;;;;;;5044655;28;20110;-60
2023/12/20 10:18:58;;;;;;;1.83;0.80;;;;;;;;;;5044504;28;20687;-60
2023/12/20 10:21:26;;;;;;;5.40;0.90;;;;;;;;;;5043493;28;20504;-60
2023/12/20 10:23:52;;;;;;;4.63;1.20;;;;;;;;;;5047150;28;20063;-60
2023/12/20 10:26:22;;;;;;;9.82;2.40;;;;;;;;;;5046828;28;20044;-60
2023/12/20 10:28:52;;;;;;;1.75;0.80;;;;;;;;;;5038298;28;20037;-60
2023/12/20 10:31:28;;;;;;;3.25;0.70;;;;;;;;;;5045482;28;20053;-60
2023/12/20 10:33:56;;;;;;;9.50;1.20;;;;;;;;;;5045031;28;20049;-60
2023/12/20 10:36:23;;;;;;;3.45;1.38;;;;;;;;;;5041754;28;20082;-59
2023/12/20 10:38:51;;;;;;;2.78;0.80;;;;;;;;;;5040459;28;20037;-60
2023/12/20 10:41:20;;;;;;;2.75;0.50;;;;;;;;;;5040962;28;20044;-60
2023/12/20 10:43:46;;;;;;;4.00;0.65;;;;;;;;;;5043532;28;20036;-60
2023/12/20 10:46:12;;;;;;;7.85;1.58;;;;;;;;;;5042810;28;20041;-59
2023/12/20 10:48:40;;;;;;;3.50;0.93;;;;;;;;;;5041343;28;20053;-60
2023/12/20 10:51:06;;;;;;;5.68;1.00;;;;;;;;;;5044420;28;20042;-59
2023/12/20 10:53:32;;;;;;;5.38;1.40;;;;;;;;;;5036826;28;20095;-59
2023/12/20 10:56:00;;;;;;;5.95;1.67;;;;;;;;;;5046863;28;20047;-59
2023/12/20 10:58:27;;;;;;;7.55;1.40;;;;;;;;;;5049213;28;20037;-59
2023/12/20 11:00:58;;;;;;;7.95;2.50;;;;;;;;;;5040977;28;20166;-59
2023/12/20 11:03:25;;;;;;;5.95;1.08;;;;;;;;;;5045474;28;20500;-59
2023/12/20 11:05:54;;;;;;;8.40;1.73;;;;;;;;;;5039206;28;20033;-59
2023/12/20 11:08:20;;;;;;;2.38;1.00;;;;;;;;;;5045230;28;20045;-59
2023/12/20 11:10:52;;;;;;;5.43;0.93;;;;;;;;;;5046172;28;20029;-59
2023/12/20 11:13:21;;;;;;;1.88;1.30;;;;;;;;;;5042620;28;20075;-59
2023/12/20 11:15:47;;;;;;;5.05;1.30;;;;;;;;;;5045994;28;20292;-59
2023/12/20 11:18:13;;;;;;;6.32;1.52;;;;;;;;;;5039182;28;20436;-60
2023/12/20 11:20:41;;;;;;;4.65;1.15;;;;;;;;;;5042344;28;20037;-61
2023/12/20 11:23:08;;;;;;;5.75;1.20;;;;;;;;;;5041917;28;20045;-59
2023/12/20 11:25:49;;;;;;;3.17;1.50;;;;;;;;;;5035174;28;20045;-60
2023/12/20 11:28:17;;;;;;;4.68;1.15;;;;;;;;;;5039472;28;20048;-60
2023/12/20 11:30:48;;;;;;;6.20;1.42;;;;;;;;;;5044985;28;20502;-60
2023/12/20 11:33:17;;;;;;;6.93;1.25;;;;;;;;;;5036692;28;20457;-59
2023/12/20 11:35:43;;;;;;;5.97;1.67;;;;;;;;;;5044864;28;20099;-61
2023/12/20 11:38:10;;;;;;;4.80;1.35;;;;;;;;;;5045863;28;20033;-60
2023/12/20 11:40:37;;;;;;;4.25;0.98;;;;;;;;;;5045193;28;20029;-59
2023/12/20 11:43:04;;;;;;;3.92;1.25;;;;;;;;;;5043832;28;20460;-60
2023/12/20 11:45:30;;;;;;;4.15;0.98;;;;;;;;;;5044550;28;20122;-61
2023/12/20 11:47:57;;;;;;;8.20;1.42;;;;;;;;;;5044236;28;20041;-60
2023/12/20 11:50:23;;;;;;;5.93;1.65;;;;;;;;;;5044879;28;20406;-60
2023/12/20 11:52:51;;;;;;;9.30;2.17;;;;;;;;;;5044235;28;20735;-60
2023/12/20 11:55:17;;;;;;;5.20;1.42;;;;;;;;;;5043916;28;20343;-59
2023/12/20 11:57:43;;;;;;;8.10;2.22;;;;;;;;;;5044680;28;20116;-60
2023/12/20 12:00:10;;;;;;;6.03;1.27;;;;;;;;;;5045650;28;20382;-59
2023/12/20 12:02:36;;;;;;;14.15;2.70;;;;;;;;;;5044955;28;20090;-59
2023/12/20 12:05:05;;;;;;;4.43;1.35;;;;;;;;;;5043922;28;20045;-61
2023/12/20 12:07:31;;;;;;;4.38;1.23;;;;;;;;;;5045355;28;20421;-59
2023/12/20 12:09:57;;;;;;;5.57;1.58;;;;;;;;;;5045306;28;20120;-61
2023/12/20 12:12:25;;;;;;;3.25;1.10;;;;;;;;;;5045777;28;20038;-60
2023/12/20 12:14:51;;;;;;;8.30;1.60;;;;;;;;;;5037115;28;20076;-59
2023/12/20 12:17:17;;;;;;;7.22;1.98;;;;;;;;;;5044599;28;20477;-59
2023/12/20 12:19:43;;;;;;;8.18;1.70;;;;;;;;;;5044626;28;20648;-59
2023/12/20 12:22:13;;;;;;;3.63;1.23;;;;;;;;;;5045129;28;20090;-60
2023/12/20 12:24:40;;;;;;;7.57;1.63;;;;;;;;;;5045376;28;20049;-59
2023/12/20 12:27:07;;;;;;;7.55;2.20;;;;;;;;;;5045281;28;20053;-60
2023/12/20 12:29:33;;;;;;;9.35;3.45;;;;;;;;;;5044626;28;20313;-60
2023/12/20 12:31:59;;;;;;;6.43;3.13;;;;;;;;;;5045339;28;20041;-60
2023/12/20 12:34:28;;;;;;;8.43;3.17;;;;;;;;;;5045447;28;20434;-60
2023/12/20 12:36:54;;;;;;;4.50;2.30;;;;;;;;;;5045200;28;20651;-60
2023/12/20 12:39:20;;;;;;;5.82;2.03;;;;;;;;;;5045132;28;20664;-59
2023/12/20 12:41:46;;;;;;;7.10;2.13;;;;;;;;;;5045206;28;20076;-60
2023/12/20 12:44:12;;;;;;;3.08;1.13;;;;;;;;;;5042886;28;20084;-60
2023/12/20 12:46:38;;;;;;;6.63;1.55;;;;;;;;;;5045226;28;20037;-60
2023/12/20 12:49:04;;;;;;;9.45;1.98;;;;;;;;;;5045254;28;20048;-60
2023/12/20 12:51:31;;;;;;;7.28;1.52;;;;;;;;;;5044416;28;20052;-60
2023/12/20 12:53:57;;;;;;;4.75;1.27;;;;;;;;;;5045034;28;20041;-61
2023/12/20 12:56:23;;;;;;;4.25;1.17;;;;;;;;;;5045308;28;20060;-60
2023/12/20 12:58:49;;;;;;;11.52;1.45;;;;;;;;;;5044352;28;20111;-60
2023/12/20 13:01:15;;;;;;;7.20;1.83;;;;;;;;;;5044983;28;20070;-60
2023/12/20 13:03:41;;;;;;;4.95;1.73;;;;;;;;;;5045021;28;20108;-60
2023/12/20 13:06:08;;;;;;;6.88;1.65;;;;;;;;;;5044457;28;20557;-60
2023/12/20 13:08:35;;;;;;;6.72;1.85;;;;;;;;;;5045091;28;20626;-60
2023/12/20 13:11:04;;;;;;;12.50;1.98;;;;;;;;;;5045240;28;20044;-59
2023/12/20 13:13:30;;;;;;;8.60;2.05;;;;;;;;;;5044227;28;20060;-60
2023/12/20 13:15:56;;;;;;;4.65;1.50;;;;;;;;;;5045311;28;20041;-60
2023/12/20 13:18:22;;;;;;;5.05;1.60;;;;;;;;;;5043012;28;20043;-60
2023/12/20 13:20:48;;;;;;;14.90;2.13;;;;;;;;;;5044938;28;20045;-60
2023/12/20 13:23:14;;;;;;;8.75;1.88;;;;;;;;;;5044790;28;20071;-60
2023/12/20 13:25:41;;;;;;;9.35;2.38;;;;;;;;;;5044159;28;20045;-60
2023/12/20 13:28:08;;;;;;;8.32;2.55;;;;;;;;;;5044741;28;20041;-60
2023/12/20 13:30:34;;;;;;;5.75;1.88;;;;;;;;;;5047670;28;20390;-60
2023/12/20 13:33:00;;;;;;;4.63;1.30;;;;;;;;;;5047607;28;20460;-60
2023/12/20 13:35:26;;;;;;;3.13;1.23;;;;;;;;;;5049096;28;20081;-60
2023/12/20 13:37:52;;;;;;;9.05;1.20;;;;;;;;;;5048648;28;20065;-60
2023/12/20 13:40:19;;;;;;;2.25;1.20;;;;;;;;;;5047884;28;20120;-60
2023/12/20 13:42:45;;;;;;;3.67;0.93;;;;;;;;;;5048207;28;20055;-59
2023/12/20 13:45:11;;;;;;;4.88;0.85;;;;;;;;;;5047977;28;20040;-60
2023/12/20 13:47:37;;;;;;;4.07;1.52;;;;;;;;;;5047533;28;20115;-59
2023/12/20 13:50:04;;;;;;;3.40;1.17;;;;;;;;;;5047736;28;20061;-59
2023/12/20 13:52:30;;;;;;;5.15;0.90;;;;;;;;;;5047964;28;20051;-60
2023/12/20 13:54:56;;;;;;;3.55;0.90;;;;;;;;;;5047719;28;20033;-59
2023/12/20 13:57:22;;;;;;;5.13;1.08;;;;;;;;;;5047824;28;20029;-60
2023/12/20 13:59:48;;;;;;;4.63;1.25;;;;;;;;;;5048316;28;20087;-60
2023/12/20 14:02:16;;;;;;;4.30;1.02;;;;;;;;;;5047489;28;20084;-60
2023/12/20 14:04:42;;;;;;;4.28;1.17;;;;;;;;;;5039551;28;20049;-60
2023/12/20 14:07:09;;;;;;;1.70;0.50;;;;;;;;;;5047647;28;20044;-60
2023/12/20 14:09:35;;;;;;;1.95;0.57;;;;;;;;;;5047025;28;20037;-60
2023/12/20 14:12:01;;;;;;;4.95;1.35;;;;;;;;;;5047741;28;20624;-60
2023/12/20 14:14:28;;;;;;;2.35;0.90;;;;;;;;;;5045987;28;20131;-59
2023/12/20 14:16:54;;;;;;;3.88;0.80;;;;;;;;;;5039925;28;20033;-59
2023/12/20 14:19:20;;;;;;;5.25;1.27;;;;;;;;;;5047453;28;20102;-60
2023/12/20 14:21:46;;;;;;;3.88;1.10;;;;;;;;;;5046999;28;20397;-60
2023/12/20 14:24:14;;;;;;;4.35;0.85;;;;;;;;;;5047385;28;20326;-60
2023/12/20 14:26:41;;;;;;;2.30;0.90;;;;;;;;;;5047497;28;20569;-60
2023/12/20 14:29:07;;;;;;;2.90;0.60;;;;;;;;;;5047125;28;20079;-60
2023/12/20 14:31:33;;;;;;;1.27;0.50;;;;;;;;;;5047216;28;20052;-59
2023/12/20 14:34:00;;;;;;;1.85;0.57;;;;;;;;;;5046969;28;20091;-59